sensor_id;sensor_type;location;lat;lon;timestamp;pressure;altitude;pressure_sealevel;temperature;humidity
37892;BME280;45797;47.466;9.486;2023-07-13T00:06:01;95859.97;;;20.19;68.90
37892;BME280;45797;47.466;9.486;2023-07-13T00:11:08;95856.97;;;20.22;68.69
37892;BME280;45797;47.466;9.486;2023-07-13T00:16:14;95866.25;;;20.26;68.75
37892;BME280;45797;47.466;9.486;2023-07-13T00:21:14;95877.59;;;20.28;69.25
37892;BME280;45797;47.466;9.486;2023-07-13T00:26:18;95878.25;;;20.30;68.74
37892;BME280;45797;47.466;9.486;2023-07-13T00:31:44;95871.56;;;20.26;68.89
37892;BME280;45797;47.466;9.486;2023-07-13T00:36:45;95867.09;;;20.26;69.28
37892;BME280;45797;47.466;9.486;2023-07-13T00:41:47;95868.75;;;20.27;69.38
37892;BME280;45797;47.466;9.486;2023-07-13T00:47:07;95864.09;;;20.30;69.17
37892;BME280;45797;47.466;9.486;2023-07-13T00:52:17;95861.28;;;20.31;69.14
37892;BME280;45797;47.466;9.486;2023-07-13T00:57:20;95870.56;;;20.35;69.38
37892;BME280;45797;47.466;9.486;2023-07-13T01:02:22;95855.78;;;20.33;69.60
37892;BME280;45797;47.466;9.486;2023-07-13T01:07:23;95861.09;;;20.33;69.69
37892;BME280;45797;47.466;9.486;2023-07-13T01:12:24;95863.75;;;20.33;69.45
37892;BME280;45797;47.466;9.486;2023-07-13T01:17:33;95862.59;;;20.35;69.58
37892;BME280;45797;47.466;9.486;2023-07-13T01:22:50;95872.56;;;20.33;69.55
37892;BME280;45797;47.466;9.486;2023-07-13T01:28:00;95870.38;;;20.37;69.31
37892;BME280;45797;47.466;9.486;2023-07-13T01:33:00;95873.22;;;20.35;69.32
37892;BME280;45797;47.466;9.486;2023-07-13T01:38:00;95867.59;;;20.38;69.42
37892;BME280;45797;47.466;9.486;2023-07-13T01:43:05;95869.06;;;20.41;69.74
37892;BME280;45797;47.466;9.486;2023-07-13T01:48:05;95853.78;;;20.35;69.83
37892;BME280;45797;47.466;9.486;2023-07-13T01:53:12;95849.63;;;20.32;69.78
37892;BME280;45797;47.466;9.486;2023-07-13T01:58:15;95841.31;;;20.27;69.84
37892;BME280;45797;47.466;9.486;2023-07-13T02:03:15;95833.38;;;20.19;70.18
37892;BME280;45797;47.466;9.486;2023-07-13T02:08:20;95832.84;;;20.15;70.39
37892;BME280;45797;47.466;9.486;2023-07-13T02:13:34;95829.53;;;20.05;70.20
37892;BME280;45797;47.466;9.486;2023-07-13T02:18:41;95831.06;;;20.00;70.63
37892;BME280;45797;47.466;9.486;2023-07-13T02:23:41;95836.03;;;19.94;70.74
37892;BME280;45797;47.466;9.486;2023-07-13T02:28:45;95845.00;;;19.93;70.47
37892;BME280;45797;47.466;9.486;2023-07-13T02:33:46;95852.50;;;19.90;70.66
37892;BME280;45797;47.466;9.486;2023-07-13T02:39:11;95860.13;;;19.85;70.46
37892;BME280;45797;47.466;9.486;2023-07-13T02:44:13;95864.28;;;19.87;71.08
37892;BME280;45797;47.466;9.486;2023-07-13T02:49:14;95864.94;;;19.89;70.49
37892;BME280;45797;47.466;9.486;2023-07-13T02:54:50;95860.63;;;19.88;70.40
37892;BME280;45797;47.466;9.486;2023-07-13T03:00:03;95863.16;;;19.90;69.87
37892;BME280;45797;47.466;9.486;2023-07-13T03:05:41;95877.28;;;19.90;70.46
37892;BME280;45797;47.466;9.486;2023-07-13T03:10:59;95862.97;;;19.91;70.27
37892;BME280;45797;47.466;9.486;2023-07-13T03:16:01;95866.94;;;19.95;70.23
37892;BME280;45797;47.466;9.486;2023-07-13T03:21:03;95862.28;;;19.97;70.48
37892;BME280;45797;47.466;9.486;2023-07-13T03:26:18;95875.28;;;20.01;70.23
37892;BME280;45797;47.466;9.486;2023-07-13T03:31:49;95874.75;;;20.05;70.08
37892;BME280;45797;47.466;9.486;2023-07-13T03:36:59;95882.25;;;20.10;69.99
37892;BME280;45797;47.466;9.486;2023-07-13T03:42:15;95883.91;;;20.11;69.96
37892;BME280;45797;47.466;9.486;2023-07-13T03:47:17;95891.91;;;20.19;70.01
37892;BME280;45797;47.466;9.486;2023-07-13T03:52:26;95883.56;;;20.22;69.98
37892;BME280;45797;47.466;9.486;2023-07-13T03:57:30;95898.69;;;20.30;69.92
37892;BME280;45797;47.466;9.486;2023-07-13T04:02:42;95892.53;;;20.29;70.36
37892;BME280;45797;47.466;9.486;2023-07-13T04:07:49;95902.66;;;20.34;70.31
37892;BME280;45797;47.466;9.486;2023-07-13T04:12:52;95895.84;;;20.39;70.39
37892;BME280;45797;47.466;9.486;2023-07-13T04:17:53;95904.50;;;20.41;70.17
37892;BME280;45797;47.466;9.486;2023-07-13T04:22:56;95899.38;;;20.48;70.19
37892;BME280;45797;47.466;9.486;2023-07-13T04:27:58;95900.03;;;20.50;70.29
37892;BME280;45797;47.466;9.486;2023-07-13T04:33:04;95914.66;;;20.54;70.34
37892;BME280;45797;47.466;9.486;2023-07-13T04:38:16;95911.81;;;20.56;70.35
37892;BME280;45797;47.466;9.486;2023-07-13T04:43:20;95915.63;;;20.61;70.27
37892;BME280;45797;47.466;9.486;2023-07-13T04:48:21;95920.78;;;20.63;70.13
37892;BME280;45797;47.466;9.486;2023-07-13T04:53:21;95923.13;;;20.66;70.57
37892;BME280;45797;47.466;9.486;2023-07-13T04:58:25;95928.41;;;20.74;70.63
37892;BME280;45797;47.466;9.486;2023-07-13T05:03:32;95928.09;;;20.77;70.52
37892;BME280;45797;47.466;9.486;2023-07-13T05:08:47;95933.25;;;20.78;70.38
37892;BME280;45797;47.466;9.486;2023-07-13T05:13:51;95926.91;;;20.88;69.93
37892;BME280;45797;47.466;9.486;2023-07-13T05:19:02;95938.56;;;20.87;69.85
37892;BME280;45797;47.466;9.486;2023-07-13T05:24:02;95941.88;;;20.89;70.03
37892;BME280;45797;47.466;9.486;2023-07-13T05:29:20;95950.88;;;20.88;70.08
37892;BME280;45797;47.466;9.486;2023-07-13T05:34:36;95955.53;;;20.86;70.13
37892;BME280;45797;47.466;9.486;2023-07-13T05:39:36;95954.19;;;20.81;70.41
37892;BME280;45797;47.466;9.486;2023-07-13T05:44:42;95958.53;;;20.82;70.41
37892;BME280;45797;47.466;9.486;2023-07-13T05:49:49;95961.00;;;20.84;70.50
37892;BME280;45797;47.466;9.486;2023-07-13T05:54:56;95966.34;;;20.84;70.20
37892;BME280;45797;47.466;9.486;2023-07-13T05:59:56;95975.00;;;20.86;70.36
37892;BME280;45797;47.466;9.486;2023-07-13T06:04:57;95987.47;;;20.94;70.31
37892;BME280;45797;47.466;9.486;2023-07-13T06:16:07;95999.25;;;21.07;69.45
37892;BME280;45797;47.466;9.486;2023-07-13T06:21:17;95999.56;;;21.13;69.47
37892;BME280;45797;47.466;9.486;2023-07-13T06:26:21;96008.56;;;21.11;69.19
37892;BME280;45797;47.466;9.486;2023-07-13T06:31:30;96004.75;;;21.14;69.75
37892;BME280;45797;47.466;9.486;2023-07-13T06:36:31;96008.25;;;21.15;69.94
37892;BME280;45797;47.466;9.486;2023-07-13T06:41:57;96014.59;;;21.14;70.09
37892;BME280;45797;47.466;9.486;2023-07-13T06:52:44;96025.25;;;21.14;69.89
37892;BME280;45797;47.466;9.486;2023-07-13T06:57:47;96025.91;;;21.16;70.13
37892;BME280;45797;47.466;9.486;2023-07-13T07:02:47;96026.91;;;21.15;70.18
37892;BME280;45797;47.466;9.486;2023-07-13T07:08:07;96029.22;;;21.18;70.17
37892;BME280;45797;47.466;9.486;2023-07-13T07:13:24;96037.38;;;21.24;69.96
37892;BME280;45797;47.466;9.486;2023-07-13T07:18:28;96040.53;;;21.36;70.13
37892;BME280;45797;47.466;9.486;2023-07-13T07:23:47;96056.81;;;21.49;69.53
37892;BME280;45797;47.466;9.486;2023-07-13T07:29:18;96057.44;;;21.59;69.52
37892;BME280;45797;47.466;9.486;2023-07-13T07:34:38;96044.22;;;21.74;69.12
37892;BME280;45797;47.466;9.486;2023-07-13T07:39:40;96050.31;;;21.91;69.07
37892;BME280;45797;47.466;9.486;2023-07-13T07:44:43;96060.28;;;21.97;68.29
37892;BME280;45797;47.466;9.486;2023-07-13T07:49:43;96064.44;;;22.00;68.69
37892;BME280;45797;47.466;9.486;2023-07-13T07:54:43;96064.09;;;22.03;68.51
37892;BME280;45797;47.466;9.486;2023-07-13T07:59:46;96061.06;;;22.14;67.99
37892;BME280;45797;47.466;9.486;2023-07-13T08:04:48;96052.78;;;22.32;67.92
37892;BME280;45797;47.466;9.486;2023-07-13T08:09:52;96059.09;;;22.39;67.31
37892;BME280;45797;47.466;9.486;2023-07-13T08:15:11;96062.28;;;22.57;67.22
37892;BME280;45797;47.466;9.486;2023-07-13T08:20:13;96056.38;;;23.07;65.81
37892;BME280;45797;47.466;9.486;2023-07-13T08:25:15;96061.22;;;23.42;64.80
37892;BME280;45797;47.466;9.486;2023-07-13T08:30:16;96054.03;;;23.86;63.98
37892;BME280;45797;47.466;9.486;2023-07-13T08:35:17;96045.69;;;24.11;63.03
37892;BME280;45797;47.466;9.486;2023-07-13T08:40:25;96045.84;;;24.24;63.24
37892;BME280;45797;47.466;9.486;2023-07-13T08:56:21;96073.97;;;23.54;64.42
37892;BME280;45797;47.466;9.486;2023-07-13T09:12:28;96080.00;;;22.73;65.80
37892;BME280;45797;47.466;9.486;2023-07-13T09:23:22;96070.56;;;23.08;64.69
37892;BME280;45797;47.466;9.486;2023-07-13T09:28:27;96077.16;;;23.35;64.35
37892;BME280;45797;47.466;9.486;2023-07-13T09:33:30;96080.97;;;23.41;63.55
37892;BME280;45797;47.466;9.486;2023-07-13T09:38:33;96078.09;;;23.57;63.50
37892;BME280;45797;47.466;9.486;2023-07-13T09:43:34;96083.75;;;23.77;62.87
37892;BME280;45797;47.466;9.486;2023-07-13T09:48:36;96080.22;;;24.06;61.60
37892;BME280;45797;47.466;9.486;2023-07-13T09:53:36;96088.69;;;24.24;61.37
37892;BME280;45797;47.466;9.486;2023-07-13T09:58:37;96092.75;;;24.35;61.20
37892;BME280;45797;47.466;9.486;2023-07-13T10:03:38;96079.91;;;24.30;61.21
37892;BME280;45797;47.466;9.486;2023-07-13T10:08:40;96082.75;;;24.43;60.87
37892;BME280;45797;47.466;9.486;2023-07-13T10:14:01;96081.75;;;24.66;60.40
37892;BME280;45797;47.466;9.486;2023-07-13T10:19:41;96071.66;;;25.32;58.91
37892;BME280;45797;47.466;9.486;2023-07-13T10:24:43;96088.19;;;25.98;57.94
37892;BME280;45797;47.466;9.486;2023-07-13T10:30:12;96085.31;;;26.54;56.64
37892;BME280;45797;47.466;9.486;2023-07-13T10:35:16;96082.25;;;26.77;55.99
37892;BME280;45797;47.466;9.486;2023-07-13T10:40:34;96094.91;;;26.96;55.89
37892;BME280;45797;47.466;9.486;2023-07-13T10:45:38;96101.78;;;27.12;55.05
37892;BME280;45797;47.466;9.486;2023-07-13T10:50:43;96099.28;;;27.17;55.56
37892;BME280;45797;47.466;9.486;2023-07-13T11:01:07;96105.63;;;26.76;56.19
37892;BME280;45797;47.466;9.486;2023-07-13T11:11:48;96099.44;;;26.83;55.75
37892;BME280;45797;47.466;9.486;2023-07-13T11:16:48;96093.25;;;27.02;55.16
37892;BME280;45797;47.466;9.486;2023-07-13T11:32:38;96089.34;;;26.30;56.47
37892;BME280;45797;47.466;9.486;2023-07-13T11:37:39;96094.13;;;25.94;56.61
37892;BME280;45797;47.466;9.486;2023-07-13T11:42:42;96095.19;;;25.64;57.03
37892;BME280;45797;47.466;9.486;2023-07-13T11:47:43;96093.41;;;25.72;56.96
37892;BME280;45797;47.466;9.486;2023-07-13T11:52:48;96091.69;;;25.99;56.52
37892;BME280;45797;47.466;9.486;2023-07-13T11:58:03;96086.44;;;25.84;55.91
37892;BME280;45797;47.466;9.486;2023-07-13T12:03:03;96087.06;;;25.51;56.52
37892;BME280;45797;47.466;9.486;2023-07-13T12:08:17;96087.25;;;25.22;57.30
37892;BME280;45797;47.466;9.486;2023-07-13T12:13:37;96074.97;;;25.34;56.60
37892;BME280;45797;47.466;9.486;2023-07-13T12:18:42;96078.66;;;25.33;56.52
37892;BME280;45797;47.466;9.486;2023-07-13T12:23:49;96080.38;;;25.13;56.95
37892;BME280;45797;47.466;9.486;2023-07-13T12:28:54;96070.84;;;25.38;56.10
37892;BME280;45797;47.466;9.486;2023-07-13T12:39:45;96058.06;;;27.56;52.15
37892;BME280;45797;47.466;9.486;2023-07-13T12:44:46;96049.81;;;28.29;50.35
37892;BME280;45797;47.466;9.486;2023-07-13T12:49:57;96053.81;;;28.52;50.45
37892;BME280;45797;47.466;9.486;2023-07-13T12:55:11;96049.41;;;28.95;50.18
37892;BME280;45797;47.466;9.486;2023-07-13T13:00:36;96051.03;;;29.53;49.17
37892;BME280;45797;47.466;9.486;2023-07-13T13:05:38;96061.44;;;30.11;48.19
37892;BME280;45797;47.466;9.486;2023-07-13T13:10:55;96059.13;;;30.14;47.95
37892;BME280;45797;47.466;9.486;2023-07-13T13:21:22;96058.13;;;30.09;48.17
37892;BME280;45797;47.466;9.486;2023-07-13T13:26:24;96047.06;;;30.29;47.77
37892;BME280;45797;47.466;9.486;2023-07-13T13:31:32;96050.16;;;30.32;47.62
37892;BME280;45797;47.466;9.486;2023-07-13T13:36:33;96053.06;;;30.31;48.01
37892;BME280;45797;47.466;9.486;2023-07-13T13:41:39;96049.63;;;30.42;47.35
37892;BME280;45797;47.466;9.486;2023-07-13T13:46:44;96049.34;;;30.62;47.30
37892;BME280;45797;47.466;9.486;2023-07-13T13:51:54;96030.56;;;30.67;46.73
37892;BME280;45797;47.466;9.486;2023-07-13T13:56:55;96035.19;;;30.60;47.13
37892;BME280;45797;47.466;9.486;2023-07-13T14:01:56;96031.78;;;30.83;46.16
37892;BME280;45797;47.466;9.486;2023-07-13T14:07:02;96031.31;;;30.86;46.33
37892;BME280;45797;47.466;9.486;2023-07-13T14:12:02;96031.88;;;30.46;46.45
37892;BME280;45797;47.466;9.486;2023-07-13T14:17:03;96025.91;;;30.26;46.90
37892;BME280;45797;47.466;9.486;2023-07-13T14:22:12;96026.50;;;30.28;46.50
37892;BME280;45797;47.466;9.486;2023-07-13T14:27:12;96027.88;;;30.19;47.09
37892;BME280;45797;47.466;9.486;2023-07-13T14:32:13;96036.50;;;30.57;46.26
37892;BME280;45797;47.466;9.486;2023-07-13T14:37:18;96041.75;;;30.70;45.99
37892;BME280;45797;47.466;9.486;2023-07-13T14:42:20;96048.44;;;30.20;46.62
37892;BME280;45797;47.466;9.486;2023-07-13T14:47:24;96048.50;;;29.95;47.60
37892;BME280;45797;47.466;9.486;2023-07-13T14:52:25;96047.88;;;29.93;47.39
37892;BME280;45797;47.466;9.486;2023-07-13T14:57:42;96048.72;;;29.56;47.76
37892;BME280;45797;47.466;9.486;2023-07-13T15:03:00;96044.28;;;29.62;47.30
37892;BME280;45797;47.466;9.486;2023-07-13T15:08:03;96045.59;;;29.96;46.87
37892;BME280;45797;47.466;9.486;2023-07-13T15:13:17;96043.31;;;30.30;46.31
37892;BME280;45797;47.466;9.486;2023-07-13T15:18:28;96038.38;;;30.27;46.43
37892;BME280;45797;47.466;9.486;2023-07-13T15:23:36;96041.91;;;30.27;46.59
37892;BME280;45797;47.466;9.486;2023-07-13T15:28:38;96048.44;;;30.68;45.75
37892;BME280;45797;47.466;9.486;2023-07-13T15:33:45;96034.25;;;33.10;41.92
37892;BME280;45797;47.466;9.486;2023-07-13T15:39:20;96046.50;;;35.16;38.49
37892;BME280;45797;47.466;9.486;2023-07-13T15:44:40;96047.50;;;37.25;35.58
37892;BME280;45797;47.466;9.486;2023-07-13T15:49:41;96050.47;;;39.19;33.54
37892;BME280;45797;47.466;9.486;2023-07-13T15:55:09;96047.63;;;40.21;32.27
37892;BME280;45797;47.466;9.486;2023-07-13T16:00:26;96048.09;;;38.53;35.15
37892;BME280;45797;47.466;9.486;2023-07-13T16:05:36;96063.03;;;38.86;34.26
37892;BME280;45797;47.466;9.486;2023-07-13T16:10:38;96058.91;;;39.28;33.60
37892;BME280;45797;47.466;9.486;2023-07-13T16:15:41;96048.38;;;39.40;33.48
37892;BME280;45797;47.466;9.486;2023-07-13T16:20:53;96048.19;;;41.74;30.58
37892;BME280;45797;47.466;9.486;2023-07-13T16:26:07;96050.41;;;42.32;29.88
37892;BME280;45797;47.466;9.486;2023-07-13T16:31:18;96065.28;;;42.86;29.19
37892;BME280;45797;47.466;9.486;2023-07-13T16:36:20;96069.97;;;44.11;27.73
37892;BME280;45797;47.466;9.486;2023-07-13T16:41:27;96060.00;;;44.98;26.28
37892;BME280;45797;47.466;9.486;2023-07-13T16:46:27;96074.81;;;43.52;27.88
37892;BME280;45797;47.466;9.486;2023-07-13T16:51:29;96061.72;;;41.00;30.32
37892;BME280;45797;47.466;9.486;2023-07-13T16:56:29;96060.44;;;41.82;28.70
37892;BME280;45797;47.466;9.486;2023-07-13T17:01:29;96063.84;;;43.25;26.39
37892;BME280;45797;47.466;9.486;2023-07-13T17:06:38;96066.94;;;44.22;25.40
37892;BME280;45797;47.466;9.486;2023-07-13T17:11:57;96065.66;;;43.97;26.09
37892;BME280;45797;47.466;9.486;2023-07-13T17:17:02;96061.56;;;42.91;26.76
37892;BME280;45797;47.466;9.486;2023-07-13T17:22:04;96064.63;;;43.84;25.38
37892;BME280;45797;47.466;9.486;2023-07-13T17:27:06;96057.03;;;44.69;24.62
37892;BME280;45797;47.466;9.486;2023-07-13T17:32:13;96067.19;;;45.17;24.04
37892;BME280;45797;47.466;9.486;2023-07-13T17:37:27;96059.06;;;45.38;23.96
37892;BME280;45797;47.466;9.486;2023-07-13T17:42:29;96056.59;;;45.27;23.97
37892;BME280;45797;47.466;9.486;2023-07-13T17:47:36;96060.31;;;45.57;23.54
37892;BME280;45797;47.466;9.486;2023-07-13T17:52:39;96061.66;;;46.24;22.50
37892;BME280;45797;47.466;9.486;2023-07-13T17:57:43;96070.88;;;46.75;22.15
37892;BME280;45797;47.466;9.486;2023-07-13T18:02:45;96073.66;;;47.05;22.06
37892;BME280;45797;47.466;9.486;2023-07-13T18:07:45;96071.75;;;46.96;22.54
37892;BME280;45797;47.466;9.486;2023-07-13T18:12:46;96069.31;;;46.65;22.42
37892;BME280;45797;47.466;9.486;2023-07-13T18:17:49;96063.91;;;46.31;22.57
37892;BME280;45797;47.466;9.486;2023-07-13T18:22:52;96062.16;;;45.45;23.10
37892;BME280;45797;47.466;9.486;2023-07-13T18:27:59;96061.16;;;44.40;24.15
37892;BME280;45797;47.466;9.486;2023-07-13T18:32:59;96060.19;;;42.93;25.51
37892;BME280;45797;47.466;9.486;2023-07-13T18:38:20;96054.75;;;40.65;27.90
37892;BME280;45797;47.466;9.486;2023-07-13T18:43:23;96049.84;;;38.18;29.41
37892;BME280;45797;47.466;9.486;2023-07-13T18:48:32;96049.59;;;36.10;32.18
37892;BME280;45797;47.466;9.486;2023-07-13T18:53:37;96056.63;;;34.23;33.81
37892;BME280;45797;47.466;9.486;2023-07-13T18:58:40;96047.22;;;32.34;35.83
37892;BME280;45797;47.466;9.486;2023-07-13T19:03:52;96051.72;;;30.70;38.16
37892;BME280;45797;47.466;9.486;2023-07-13T19:08:54;96044.22;;;29.44;39.83
37892;BME280;45797;47.466;9.486;2023-07-13T19:14:01;96042.31;;;28.31;40.72
37892;BME280;45797;47.466;9.486;2023-07-13T19:19:31;96050.44;;;27.27;42.27
37892;BME280;45797;47.466;9.486;2023-07-13T19:24:42;96056.59;;;26.55;43.19
37892;BME280;45797;47.466;9.486;2023-07-13T19:29:43;96068.94;;;25.95;44.51
37892;BME280;45797;47.466;9.486;2023-07-13T19:35:03;96078.25;;;25.36;44.49
37892;BME280;45797;47.466;9.486;2023-07-13T19:40:20;96077.50;;;24.93;44.96
37892;BME280;45797;47.466;9.486;2023-07-13T19:45:23;96084.16;;;24.61;45.61
37892;BME280;45797;47.466;9.486;2023-07-13T19:50:25;96087.94;;;24.30;46.21
37892;BME280;45797;47.466;9.486;2023-07-13T19:55:26;96091.31;;;24.03;46.22
37892;BME280;45797;47.466;9.486;2023-07-13T20:00:27;96092.91;;;23.82;46.81
37892;BME280;45797;47.466;9.486;2023-07-13T20:05:44;96106.84;;;23.63;46.49
37892;BME280;45797;47.466;9.486;2023-07-13T20:11:03;96107.97;;;23.46;47.31
37892;BME280;45797;47.466;9.486;2023-07-13T20:16:14;96106.78;;;23.33;46.94
37892;BME280;45797;47.466;9.486;2023-07-13T20:21:15;96113.41;;;23.23;47.27
37892;BME280;45797;47.466;9.486;2023-07-13T20:26:16;96117.34;;;23.12;47.43
37892;BME280;45797;47.466;9.486;2023-07-13T20:31:18;96113.72;;;23.05;47.88
37892;BME280;45797;47.466;9.486;2023-07-13T20:36:21;96120.97;;;22.96;47.63
37892;BME280;45797;47.466;9.486;2023-07-13T20:41:24;96124.22;;;22.84;48.14
37892;BME280;45797;47.466;9.486;2023-07-13T20:46:24;96132.63;;;22.72;48.10
37892;BME280;45797;47.466;9.486;2023-07-13T20:51:24;96128.50;;;22.62;48.41
37892;BME280;45797;47.466;9.486;2023-07-13T20:56:28;96137.06;;;22.57;48.65
37892;BME280;45797;47.466;9.486;2023-07-13T21:01:34;96131.78;;;22.49;48.68
37892;BME280;45797;47.466;9.486;2023-07-13T21:06:49;96132.66;;;22.41;48.45
37892;BME280;45797;47.466;9.486;2023-07-13T21:11:51;96125.19;;;22.37;49.02
37892;BME280;45797;47.466;9.486;2023-07-13T21:16:53;96125.41;;;22.27;49.28
37892;BME280;45797;47.466;9.486;2023-07-13T21:21:53;96125.63;;;22.17;49.73
37892;BME280;45797;47.466;9.486;2023-07-13T21:26:57;96127.97;;;22.12;49.47
37892;BME280;45797;47.466;9.486;2023-07-13T21:32:23;96139.00;;;21.93;49.77
37892;BME280;45797;47.466;9.486;2023-07-13T21:37:24;96131.38;;;21.82;50.38
37892;BME280;45797;47.466;9.486;2023-07-13T21:42:26;96128.75;;;21.74;50.55
37892;BME280;45797;47.466;9.486;2023-07-13T21:47:29;96134.75;;;21.67;50.84
37892;BME280;45797;47.466;9.486;2023-07-13T21:52:31;96126.44;;;21.62;51.03
37892;BME280;45797;47.466;9.486;2023-07-13T21:57:31;96128.47;;;21.52;51.09
37892;BME280;45797;47.466;9.486;2023-07-13T22:02:32;96140.47;;;21.48;51.24
37892;BME280;45797;47.466;9.486;2023-07-13T22:07:49;96135.66;;;21.35;51.25
37892;BME280;45797;47.466;9.486;2023-07-13T22:12:50;96141.66;;;21.29;51.66
37892;BME280;45797;47.466;9.486;2023-07-13T22:17:51;96134.81;;;21.19;52.10
37892;BME280;45797;47.466;9.486;2023-07-13T22:22:52;96145.81;;;21.07;52.06
37892;BME280;45797;47.466;9.486;2023-07-13T22:27:54;96148.28;;;21.01;52.27
37892;BME280;45797;47.466;9.486;2023-07-13T22:32:55;96138.78;;;20.90;52.93
37892;BME280;45797;47.466;9.486;2023-07-13T22:38:00;96137.78;;;20.83;52.88
37892;BME280;45797;47.466;9.486;2023-07-13T22:43:04;96131.97;;;20.79;53.01
37892;BME280;45797;47.466;9.486;2023-07-13T22:48:04;96142.78;;;20.78;52.92
37892;BME280;45797;47.466;9.486;2023-07-13T22:53:13;96136.47;;;20.79;52.18
37892;BME280;45797;47.466;9.486;2023-07-13T22:58:15;96135.81;;;20.77;53.07
37892;BME280;45797;47.466;9.486;2023-07-13T23:03:16;96137.44;;;20.70;52.74
37892;BME280;45797;47.466;9.486;2023-07-13T23:08:17;96138.28;;;20.62;53.17
37892;BME280;45797;47.466;9.486;2023-07-13T23:13:18;96147.75;;;20.57;53.19
37892;BME280;45797;47.466;9.486;2023-07-13T23:18:19;96141.75;;;20.54;53.16
37892;BME280;45797;47.466;9.486;2023-07-13T23:23:20;96146.06;;;20.47;52.95
37892;BME280;45797;47.466;9.486;2023-07-13T23:28:22;96151.34;;;20.39;53.50
37892;BME280;45797;47.466;9.486;2023-07-13T23:33:27;96146.00;;;20.31;53.50
37892;BME280;45797;47.466;9.486;2023-07-13T23:38:32;96149.28;;;20.25;53.85
37892;BME280;45797;47.466;9.486;2023-07-13T23:43:34;96150.41;;;20.14;53.97
37892;BME280;45797;47.466;9.486;2023-07-13T23:48:46;96146.22;;;20.04;53.91
37892;BME280;45797;47.466;9.486;2023-07-13T23:53:46;96143.53;;;19.95;54.60
37892;BME280;45797;47.466;9.486;2023-07-13T23:58:51;96133.38;;;19.91;54.32
